createdAt,value
2022-07-29T00:00:22.989Z,2.38
2022-07-29T00:02:50.439Z,2.40
2022-07-29T00:05:17.884Z,2.38
2022-07-29T00:07:45.333Z,2.30
2022-07-29T00:10:13.485Z,2.58
2022-07-29T00:12:40.850Z,2.22
2022-07-29T00:15:09.222Z,2.00
2022-07-29T00:17:36.542Z,2.40
2022-07-29T00:20:05.351Z,2.10
2022-07-29T00:22:32.750Z,2.13
2022-07-29T00:25:00.142Z,1.88
2022-07-29T00:27:27.423Z,2.40
2022-07-29T00:29:54.762Z,2.17
2022-07-29T00:32:22.237Z,1.80
2022-07-29T00:35:08.383Z,2.03
2022-07-29T00:37:35.608Z,2.15
2022-07-29T00:40:03.448Z,2.00
2022-07-29T00:42:30.932Z,1.90
2022-07-29T00:44:58.367Z,2.25
2022-07-29T00:47:25.714Z,2.22
2022-07-29T00:49:53.116Z,2.45
2022-07-29T00:52:21.933Z,2.20
2022-07-29T00:54:49.235Z,2.10
2022-07-29T00:57:16.607Z,2.00
2022-07-29T00:59:44.048Z,1.90
2022-07-29T01:02:11.737Z,2.22
2022-07-29T01:04:39.568Z,2.28
2022-07-29T01:07:08.120Z,2.38
2022-07-29T01:09:46.342Z,2.20
2022-07-29T01:12:29.894Z,2.20
2022-07-29T01:14:57.546Z,2.08
2022-07-29T01:17:40.302Z,2.40
2022-07-29T01:20:56.694Z,2.43
2022-07-29T01:24:04.793Z,2.20
2022-07-29T01:27:35.159Z,2.17
2022-07-29T01:30:05.428Z,2.28
2022-07-29T01:32:40.477Z,2.35
2022-07-29T01:35:24.086Z,2.55
2022-07-29T01:38:06.790Z,2.38
2022-07-29T01:40:55.449Z,2.45
2022-07-29T01:43:53.141Z,2.30
2022-07-29T01:46:39.765Z,2.45
2022-07-29T01:49:17.144Z,2.40
2022-07-29T01:52:04.951Z,2.38
2022-07-29T01:54:46.818Z,2.45
2022-07-29T01:57:21.233Z,2.70
2022-07-29T01:59:50.077Z,2.67
2022-07-29T02:02:19.488Z,2.65
2022-07-29T02:04:50.727Z,2.80
2022-07-29T02:07:23.208Z,2.88
2022-07-29T02:09:53.011Z,3.45
2022-07-29T02:12:23.204Z,3.25
2022-07-29T02:14:54.958Z,3.75
2022-07-29T02:17:34.002Z,3.70
2022-07-29T02:20:05.222Z,3.40
2022-07-29T02:22:38.779Z,3.20
2022-07-29T02:25:13.787Z,3.20
2022-07-29T02:27:43.743Z,3.20
2022-07-29T02:30:13.381Z,3.33
2022-07-29T02:32:42.747Z,2.90
2022-07-29T02:35:13.933Z,2.95
2022-07-29T02:37:44.728Z,3.03
2022-07-29T02:40:15.457Z,2.92
2022-07-29T02:42:45.257Z,2.75
2022-07-29T02:45:12.730Z,3.10
2022-07-29T02:47:50.860Z,2.80
2022-07-29T02:50:44.969Z,2.70
2022-07-29T02:53:23.815Z,3.00
2022-07-29T02:56:00.726Z,2.90
2022-07-29T02:58:34.945Z,2.70
2022-07-29T03:01:19.325Z,3.10
2022-07-29T03:03:53.347Z,3.20
2022-07-29T03:06:37.423Z,3.30
2022-07-29T03:09:13.020Z,3.03
2022-07-29T03:11:49.606Z,3.10
2022-07-29T03:14:21.271Z,3.38
2022-07-29T03:16:50.958Z,3.50
2022-07-29T03:19:21.088Z,2.90
2022-07-29T03:21:49.397Z,3.80
2022-07-29T03:24:36.410Z,4.32
2022-07-29T03:27:05.301Z,4.68
2022-07-29T03:29:34.509Z,4.25
2022-07-29T03:32:08.246Z,3.55
2022-07-29T03:34:38.943Z,3.67
2022-07-29T03:37:07.622Z,3.60
2022-07-29T03:39:42.550Z,4.13
2022-07-29T03:42:15.082Z,4.30
2022-07-29T03:44:47.046Z,4.50
2022-07-29T03:47:18.776Z,4.60
2022-07-29T03:49:51.673Z,4.93
2022-07-29T03:52:19.750Z,4.78
2022-07-29T03:54:47.267Z,4.15
2022-07-29T03:57:17.344Z,4.63
2022-07-29T03:59:45.208Z,5.15
2022-07-29T04:02:14.667Z,4.90
2022-07-29T04:04:43.034Z,5.25
2022-07-29T04:07:14.876Z,5.03
2022-07-29T04:09:43.183Z,5.63
2022-07-29T04:12:11.158Z,6.50
2022-07-29T04:14:38.630Z,7.45
2022-07-29T04:17:06.650Z,7.07
2022-07-29T04:19:33.930Z,7.38
2022-07-29T04:22:02.414Z,7.65
2022-07-29T04:24:29.832Z,7.47
2022-07-29T04:26:57.099Z,7.55
2022-07-29T04:29:24.543Z,6.78
2022-07-29T04:31:51.786Z,7.53
2022-07-29T04:34:19.931Z,6.72
2022-07-29T04:36:47.600Z,7.75
2022-07-29T04:39:19.275Z,7.60
2022-07-29T04:41:51.124Z,6.95
2022-07-29T04:44:20.138Z,6.90
2022-07-29T04:46:47.516Z,6.30
2022-07-29T04:49:15.136Z,7.13
2022-07-29T04:51:42.782Z,7.45
2022-07-29T04:54:10.268Z,6.40
2022-07-29T04:56:37.873Z,7.30
2022-07-29T04:59:05.246Z,6.88
2022-07-29T05:01:32.578Z,8.02
2022-07-29T05:04:00.813Z,8.27
2022-07-29T05:06:28.348Z,9.05
2022-07-29T05:08:55.775Z,8.90
2022-07-29T05:11:26.127Z,8.40
2022-07-29T05:13:57.438Z,7.88
2022-07-29T05:16:24.891Z,7.53
2022-07-29T05:18:52.248Z,7.45
2022-07-29T05:21:19.611Z,6.97
2022-07-29T05:23:46.890Z,7.28
2022-07-29T05:26:14.281Z,7.38
2022-07-29T05:28:41.617Z,7.20
2022-07-29T05:31:13.789Z,7.30
2022-07-29T05:33:44.679Z,7.70
2022-07-29T05:36:12.642Z,7.55
2022-07-29T05:38:40.038Z,8.45
2022-07-29T05:41:07.725Z,8.73
2022-07-29T05:43:34.978Z,8.38
2022-07-29T05:46:02.390Z,8.52
2022-07-29T05:48:29.748Z,8.02
2022-07-29T05:50:57.427Z,8.45
2022-07-29T05:53:24.721Z,7.80
2022-07-29T05:55:53.114Z,7.57
2022-07-29T05:58:20.924Z,8.02
2022-07-29T06:00:48.326Z,8.68
2022-07-29T06:03:15.622Z,7.20
2022-07-29T06:05:42.959Z,6.65
2022-07-29T06:08:10.445Z,7.30
2022-07-29T06:10:38.275Z,9.15
2022-07-29T06:13:05.609Z,7.00
2022-07-29T06:15:33.608Z,6.47
2022-07-29T06:18:01.734Z,7.32
2022-07-29T06:20:33.449Z,7.15
2022-07-29T06:23:01.355Z,7.28
2022-07-29T06:25:35.620Z,6.45
2022-07-29T06:28:03.263Z,7.10
2022-07-29T06:30:31.098Z,23.23
2022-07-29T06:32:58.652Z,9.88
2022-07-29T06:35:39.166Z,7.97
2022-07-29T06:38:30.327Z,7.97
2022-07-29T06:41:01.213Z,7.47
2022-07-29T06:43:50.557Z,7.43
2022-07-29T06:46:23.944Z,6.50
2022-07-29T06:48:53.311Z,6.70
2022-07-29T06:51:23.213Z,6.00
2022-07-29T06:53:59.919Z,6.22
2022-07-29T06:56:40.457Z,6.32
2022-07-29T06:59:11.067Z,5.00
2022-07-29T07:01:43.765Z,4.78
2022-07-29T07:04:12.490Z,4.50
2022-07-29T07:06:40.133Z,3.78
2022-07-29T07:09:07.668Z,7.30
2022-07-29T07:11:35.323Z,4.28
2022-07-29T07:14:04.112Z,3.13
2022-07-29T07:16:33.146Z,3.25
2022-07-29T07:19:01.501Z,3.30
2022-07-29T07:21:30.535Z,3.20
2022-07-29T07:23:59.792Z,2.90
2022-07-29T07:26:28.485Z,3.38
2022-07-29T07:28:55.880Z,2.97
2022-07-29T07:31:23.607Z,3.00
2022-07-29T07:33:51.066Z,3.55
2022-07-29T07:36:18.344Z,2.90
2022-07-29T07:38:45.772Z,2.55
2022-07-29T07:41:13.169Z,2.80
2022-07-29T07:43:40.400Z,2.72
2022-07-29T07:46:08.071Z,3.17
2022-07-29T07:48:37.036Z,2.50
2022-07-29T07:51:04.725Z,3.17
2022-07-29T07:53:32.525Z,2.70
2022-07-29T07:56:10.620Z,2.55
2022-07-29T07:58:39.631Z,2.60
2022-07-29T08:01:07.211Z,3.08
2022-07-29T08:03:34.972Z,2.70
2022-07-29T08:06:03.764Z,2.90
2022-07-29T08:08:31.024Z,3.10
2022-07-29T08:10:58.333Z,3.53
2022-07-29T08:13:31.340Z,3.50
2022-07-29T08:16:01.230Z,2.95
2022-07-29T08:18:32.199Z,2.90
2022-07-29T08:21:00.292Z,2.60
2022-07-29T08:23:47.115Z,4.15
2022-07-29T08:26:16.513Z,4.47
2022-07-29T08:28:47.122Z,3.60
2022-07-29T08:31:14.960Z,3.70
2022-07-29T08:33:42.970Z,3.70
2022-07-29T08:36:10.729Z,3.60
2022-07-29T08:38:38.086Z,3.25
2022-07-29T08:41:05.571Z,3.55
2022-07-29T08:43:33.098Z,4.05
2022-07-29T08:46:01.450Z,4.15
2022-07-29T08:48:28.751Z,3.80
2022-07-29T08:50:57.890Z,4.00
2022-07-29T08:53:29.679Z,3.65
2022-07-29T08:55:58.022Z,4.10
2022-07-29T08:58:26.003Z,4.10
2022-07-29T09:00:58.186Z,4.13
2022-07-29T09:03:33.360Z,3.97
2022-07-29T09:08:29.160Z,4.35
2022-07-29T09:11:00.979Z,3.67
2022-07-29T09:13:33.785Z,4.30
2022-07-29T09:16:07.020Z,3.50
2022-07-29T09:18:45.111Z,3.90
2022-07-29T09:21:35.304Z,3.50
2022-07-29T09:24:13.992Z,3.42
2022-07-29T09:26:46.846Z,3.55
2022-07-29T09:29:19.178Z,3.85
2022-07-29T09:31:53.463Z,3.38
2022-07-29T09:34:29.555Z,3.90
2022-07-29T09:36:57.328Z,3.30
2022-07-29T09:39:47.214Z,3.53
2022-07-29T09:42:16.022Z,3.22
2022-07-29T09:44:51.670Z,3.33
2022-07-29T09:47:25.032Z,3.55
2022-07-29T09:50:00.153Z,4.03
2022-07-29T09:52:31.924Z,4.18
2022-07-29T09:55:13.859Z,3.60
2022-07-29T09:57:47.940Z,4.35
2022-07-29T10:00:20.047Z,4.63
2022-07-29T10:02:48.673Z,5.25
2022-07-29T10:05:24.390Z,4.65
2022-07-29T10:07:58.498Z,5.95
2022-07-29T10:10:35.335Z,4.70
2022-07-29T10:13:15.323Z,4.90
2022-07-29T10:15:47.124Z,3.97
2022-07-29T10:18:18.363Z,4.53
2022-07-29T10:20:46.276Z,5.03
2022-07-29T10:23:13.616Z,4.05
2022-07-29T10:25:46.018Z,4.30
2022-07-29T10:28:16.703Z,4.30
2022-07-29T10:30:46.800Z,4.53
2022-07-29T10:33:39.715Z,4.72
2022-07-29T10:36:53.182Z,5.03
2022-07-29T10:39:56.448Z,4.68
2022-07-29T10:42:33.642Z,4.68
2022-07-29T10:45:04.917Z,4.82
2022-07-29T10:47:35.212Z,4.63
2022-07-29T10:50:07.451Z,5.60
2022-07-29T10:52:59.696Z,4.53
2022-07-29T10:55:45.555Z,5.07
2022-07-29T10:58:27.078Z,4.72
2022-07-29T11:00:56.389Z,5.10
2022-07-29T11:03:50.802Z,6.28
2022-07-29T11:06:26.959Z,5.32
2022-07-29T11:09:25.895Z,6.40
2022-07-29T11:12:03.786Z,11.75
2022-07-29T11:15:02.605Z,8.60
2022-07-29T11:17:47.078Z,6.50
2022-07-29T11:20:49.714Z,5.65
2022-07-29T11:23:33.402Z,6.28
2022-07-29T11:26:26.684Z,6.70
2022-07-29T11:28:55.719Z,4.90
2022-07-29T11:31:49.235Z,5.55
2022-07-29T11:34:33.231Z,6.95
2022-07-29T11:37:11.969Z,7.68
2022-07-29T11:39:49.292Z,4.63
2022-07-29T11:42:28.297Z,5.13
2022-07-29T11:45:44.949Z,5.63
2022-07-29T11:48:27.854Z,4.75
2022-07-29T11:50:50.243Z,8.60
2022-07-29T11:53:17.702Z,4.57
2022-07-29T11:55:51.583Z,5.53
2022-07-29T11:58:26.068Z,5.38
2022-07-29T12:00:55.747Z,5.47
2022-07-29T12:03:34.911Z,8.85
2022-07-29T12:06:18.003Z,9.50
2022-07-29T12:08:46.020Z,5.53
2022-07-29T12:11:23.411Z,5.25
2022-07-29T12:13:52.688Z,5.22
2022-07-29T12:16:26.033Z,5.15
2022-07-29T12:19:03.659Z,5.72
2022-07-29T12:21:56.873Z,5.72
2022-07-29T12:26:59.049Z,5.35
2022-07-29T12:29:34.760Z,4.80
2022-07-29T12:32:15.083Z,5.15
2022-07-29T12:34:47.550Z,5.20
2022-07-29T12:37:15.062Z,4.70
2022-07-29T12:39:42.446Z,5.05
2022-07-29T12:42:18.653Z,5.18
2022-07-29T12:44:52.454Z,5.05
2022-07-29T12:47:21.168Z,4.97
2022-07-29T12:49:50.238Z,5.15
2022-07-29T12:52:35.388Z,5.32
2022-07-29T12:55:03.170Z,4.93
2022-07-29T12:57:32.558Z,4.38
2022-07-29T13:00:13.944Z,4.95
2022-07-29T13:02:44.425Z,5.00
2022-07-29T13:05:13.759Z,4.93
2022-07-29T13:07:55.070Z,5.30
2022-07-29T13:10:25.916Z,5.20
2022-07-29T13:13:11.985Z,5.22
2022-07-29T13:15:45.417Z,4.80
2022-07-29T13:18:37.029Z,4.95
2022-07-29T13:21:16.088Z,5.22
2022-07-29T13:23:44.174Z,5.10
2022-07-29T13:26:12.727Z,5.32
2022-07-29T13:28:40.866Z,4.95
2022-07-29T13:31:12.130Z,4.93
2022-07-29T13:33:39.590Z,5.22
2022-07-29T13:36:07.485Z,5.40
2022-07-29T13:38:34.962Z,4.65
2022-07-29T13:41:03.300Z,5.22
2022-07-29T13:43:30.629Z,4.60
2022-07-29T13:45:58.009Z,5.22
2022-07-29T13:48:25.305Z,4.80
2022-07-29T13:50:52.781Z,4.75
2022-07-29T13:53:20.485Z,5.13
2022-07-29T13:55:55.258Z,5.28
2022-07-29T13:58:22.810Z,5.32
2022-07-29T14:00:50.221Z,5.00
2022-07-29T14:03:17.731Z,4.80
2022-07-29T14:05:45.025Z,4.78
2022-07-29T14:08:12.343Z,4.63
2022-07-29T14:10:39.804Z,4.60
2022-07-29T14:13:07.249Z,5.07
2022-07-29T14:15:53.777Z,5.13
2022-07-29T14:18:21.396Z,5.03
2022-07-29T14:20:49.116Z,4.88
2022-07-29T14:23:16.534Z,4.90
2022-07-29T14:25:44.488Z,5.47
2022-07-29T14:28:12.621Z,5.25
2022-07-29T14:30:42.136Z,4.72
2022-07-29T14:33:09.485Z,4.90
2022-07-29T14:35:36.701Z,4.72
2022-07-29T14:38:04.560Z,4.72
2022-07-29T14:40:31.869Z,4.80
2022-07-29T14:42:59.184Z,5.00
2022-07-29T14:45:26.533Z,5.13
2022-07-29T14:47:57.194Z,4.85
2022-07-29T14:50:31.641Z,4.90
2022-07-29T14:53:01.703Z,4.90
2022-07-29T14:55:29.196Z,5.38
2022-07-29T14:58:07.764Z,5.90
2022-07-29T15:00:38.559Z,4.65
2022-07-29T15:03:06.445Z,5.35
2022-07-29T15:05:38.854Z,5.63
2022-07-29T15:08:06.209Z,5.70
2022-07-29T15:10:33.698Z,5.88
2022-07-29T15:13:01.007Z,5.95
2022-07-29T15:15:31.040Z,4.25
2022-07-29T15:17:58.349Z,3.50
2022-07-29T15:20:27.961Z,3.70
2022-07-29T15:22:56.529Z,5.30
2022-07-29T15:25:25.556Z,4.72
2022-07-29T15:28:00.945Z,4.82
2022-07-29T15:30:34.069Z,4.97
2022-07-29T15:33:04.076Z,5.25
2022-07-29T15:35:32.137Z,4.75
2022-07-29T15:37:59.864Z,4.68
2022-07-29T15:40:27.511Z,5.35
2022-07-29T15:42:55.177Z,5.97
2022-07-29T15:45:22.714Z,5.65
2022-07-29T15:47:50.142Z,5.22
2022-07-29T15:50:18.690Z,6.93
2022-07-29T15:52:46.937Z,8.27
2022-07-29T15:55:15.677Z,7.28
2022-07-29T15:57:42.990Z,8.80
2022-07-29T16:00:11.458Z,6.75
2022-07-29T16:02:38.731Z,17.63
2022-07-29T16:05:09.572Z,5.10
2022-07-29T16:07:37.710Z,6.05
2022-07-29T16:10:07.798Z,6.60
2022-07-29T16:12:50.755Z,8.68
2022-07-29T16:15:18.371Z,8.20
2022-07-29T16:17:50.333Z,5.13
2022-07-29T16:20:17.951Z,6.18
2022-07-29T16:22:45.966Z,7.15
2022-07-29T16:25:13.248Z,11.43
2022-07-29T16:27:40.496Z,12.13
2022-07-29T16:30:09.884Z,11.23
2022-07-29T16:32:37.801Z,9.57
2022-07-29T16:35:06.383Z,6.70
2022-07-29T16:37:35.514Z,5.53
2022-07-29T16:40:06.291Z,5.45
2022-07-29T16:42:46.736Z,6.05
2022-07-29T16:45:18.021Z,5.72
2022-07-29T16:47:48.839Z,7.07
2022-07-29T16:50:17.924Z,6.60
2022-07-29T16:52:45.392Z,9.15
2022-07-29T16:55:15.116Z,8.77
2022-07-29T16:57:43.834Z,8.93
2022-07-29T17:00:17.365Z,9.27
2022-07-29T17:02:47.361Z,8.85
2022-07-29T17:05:15.791Z,10.77
2022-07-29T17:07:43.711Z,10.70
2022-07-29T17:10:11.847Z,11.77
2022-07-29T17:12:41.278Z,13.68
2022-07-29T17:15:13.989Z,15.98
2022-07-29T17:17:55.348Z,23.15
2022-07-29T17:20:26.493Z,14.38
2022-07-29T17:22:55.328Z,15.27
2022-07-29T17:25:24.015Z,14.85
2022-07-29T17:27:51.407Z,15.45
2022-07-29T17:30:22.484Z,14.02
2022-07-29T17:32:49.946Z,13.82
2022-07-29T17:35:36.168Z,15.70
2022-07-29T17:38:04.132Z,12.93
2022-07-29T17:40:31.603Z,12.30
2022-07-29T17:42:59.092Z,10.25
2022-07-29T17:45:26.439Z,12.18
2022-07-29T17:48:13.723Z,11.63
2022-07-29T17:50:41.033Z,11.43
2022-07-29T17:53:15.528Z,12.15
2022-07-29T17:55:46.055Z,12.00
2022-07-29T17:58:13.572Z,12.15
2022-07-29T18:00:42.181Z,11.25
2022-07-29T18:03:10.302Z,13.77
2022-07-29T18:05:37.689Z,11.27
2022-07-29T18:08:05.490Z,9.73
2022-07-29T18:10:33.114Z,10.15
2022-07-29T18:13:00.506Z,11.07
2022-07-29T18:15:28.022Z,9.13
2022-07-29T18:17:57.025Z,9.32
2022-07-29T18:20:26.813Z,9.80
2022-07-29T18:22:54.130Z,9.70
2022-07-29T18:25:22.038Z,8.95
2022-07-29T18:27:50.246Z,8.82
2022-07-29T18:30:17.722Z,8.75
2022-07-29T18:32:59.422Z,7.07
2022-07-29T18:35:33.191Z,6.60
2022-07-29T18:38:03.131Z,6.15
2022-07-29T18:40:31.038Z,6.88
2022-07-29T18:42:58.291Z,6.75
2022-07-29T18:45:28.198Z,6.40
2022-07-29T18:47:57.027Z,6.53
2022-07-29T18:50:29.655Z,7.40
2022-07-29T18:52:58.999Z,7.80
2022-07-29T18:55:26.819Z,6.22
2022-07-29T18:57:56.547Z,5.95
2022-07-29T19:00:25.749Z,6.10
2022-07-29T19:02:53.734Z,5.80
2022-07-29T19:05:23.163Z,6.60
2022-07-29T19:07:50.808Z,6.22
2022-07-29T19:10:18.330Z,7.15
2022-07-29T19:12:45.662Z,7.78
2022-07-29T19:15:13.091Z,7.50
2022-07-29T19:17:48.868Z,6.40
2022-07-29T19:20:16.625Z,5.28
2022-07-29T19:22:44.141Z,6.35
2022-07-29T19:25:11.494Z,5.15
2022-07-29T19:27:38.898Z,5.60
2022-07-29T19:30:09.305Z,5.97
2022-07-29T19:32:37.331Z,5.40
2022-07-29T19:35:24.391Z,5.97
2022-07-29T19:37:56.007Z,7.32
2022-07-29T19:40:23.617Z,5.15
2022-07-29T19:42:52.743Z,6.03
2022-07-29T19:45:25.833Z,5.25
2022-07-29T19:48:01.141Z,5.50
2022-07-29T19:50:37.994Z,5.70
2022-07-29T19:53:05.740Z,5.47
2022-07-29T19:55:33.417Z,4.78
2022-07-29T19:58:02.309Z,7.05
2022-07-29T20:00:32.696Z,4.50
2022-07-29T20:03:00.286Z,3.83
2022-07-29T20:05:28.394Z,5.15
2022-07-29T20:07:56.358Z,5.00
2022-07-29T20:10:24.054Z,6.30
2022-07-29T20:12:51.436Z,6.32
2022-07-29T20:15:21.266Z,4.97
2022-07-29T20:17:48.725Z,5.68
2022-07-29T20:20:16.205Z,8.18
2022-07-29T20:22:44.289Z,7.93
2022-07-29T20:25:11.947Z,8.23
2022-07-29T20:27:40.559Z,6.65
2022-07-29T20:30:09.020Z,6.07
2022-07-29T20:32:44.850Z,6.07
2022-07-29T20:35:13.470Z,6.35
2022-07-29T20:37:50.430Z,5.97
2022-07-29T20:40:27.712Z,6.13
2022-07-29T20:42:56.127Z,7.32
2022-07-29T20:45:24.557Z,7.05
2022-07-29T20:47:53.685Z,7.03
2022-07-29T20:50:23.660Z,7.40
2022-07-29T20:52:53.096Z,7.35
2022-07-29T20:55:21.016Z,8.75
2022-07-29T20:57:51.117Z,9.65
2022-07-29T21:00:20.749Z,10.63
2022-07-29T21:02:51.029Z,10.43
2022-07-29T21:05:18.473Z,11.70
2022-07-29T21:07:48.341Z,12.90
2022-07-29T21:10:18.240Z,13.55
2022-07-29T21:12:49.368Z,12.27
2022-07-29T21:15:21.564Z,12.45
2022-07-29T21:17:59.669Z,12.32
2022-07-29T21:20:32.494Z,13.98
2022-07-29T21:23:00.390Z,15.70
2022-07-29T21:25:31.479Z,16.85
2022-07-29T21:28:17.523Z,17.23
2022-07-29T21:30:47.026Z,18.95
2022-07-29T21:33:14.283Z,18.35
2022-07-29T21:36:14.879Z,18.90
2022-07-29T21:38:29.902Z,18.88
2022-07-29T21:40:58.433Z,18.30
2022-07-29T21:43:28.562Z,19.45
2022-07-29T21:45:58.010Z,19.73
2022-07-29T21:48:28.665Z,21.45
2022-07-29T21:50:56.801Z,21.30
2022-07-29T21:53:26.864Z,19.25
2022-07-29T21:55:55.525Z,18.15
2022-07-29T21:58:23.692Z,17.63
2022-07-29T22:00:51.147Z,18.63
2022-07-29T22:03:18.552Z,18.88
2022-07-29T22:05:46.524Z,18.70
2022-07-29T22:08:14.038Z,20.88
2022-07-29T22:10:41.536Z,19.25
2022-07-29T22:13:08.977Z,21.15
2022-07-29T22:15:36.498Z,21.45
2022-07-29T22:18:04.093Z,21.45
2022-07-29T22:20:31.758Z,22.58
2022-07-29T22:22:59.129Z,24.25
2022-07-29T22:25:27.674Z,24.77
2022-07-29T22:27:54.921Z,23.55
2022-07-29T22:30:22.174Z,26.02
2022-07-29T22:32:49.802Z,28.25
2022-07-29T22:35:17.686Z,27.30
2022-07-29T22:37:45.241Z,26.35
2022-07-29T22:40:13.073Z,25.95
2022-07-29T22:42:43.636Z,25.20
2022-07-29T22:45:11.476Z,28.30
2022-07-29T22:47:48.051Z,27.52
2022-07-29T22:50:17.267Z,27.15
2022-07-29T22:52:45.996Z,30.33
2022-07-29T22:55:14.325Z,30.48
2022-07-29T22:57:42.229Z,29.20
2022-07-29T23:00:11.161Z,30.85
2022-07-29T23:02:40.206Z,34.38
2022-07-29T23:05:09.073Z,41.10
2022-07-29T23:07:36.630Z,40.13
2022-07-29T23:10:05.448Z,35.50
2022-07-29T23:12:33.114Z,31.13
2022-07-29T23:15:00.430Z,29.17
2022-07-29T23:17:27.781Z,31.58
2022-07-29T23:19:55.121Z,32.45
2022-07-29T23:22:22.746Z,32.53
2022-07-29T23:24:50.233Z,31.80
2022-07-29T23:27:18.221Z,33.70
2022-07-29T23:29:45.846Z,33.25
2022-07-29T23:32:16.363Z,33.80
2022-07-29T23:34:43.858Z,33.50
2022-07-29T23:37:11.289Z,35.40
2022-07-29T23:39:38.718Z,36.50
2022-07-29T23:42:06.506Z,38.13
2022-07-29T23:44:35.539Z,38.22
2022-07-29T23:47:07.920Z,37.80
2022-07-29T23:49:35.811Z,36.22
2022-07-29T23:52:03.411Z,36.95
2022-07-29T23:54:30.755Z,35.53
2022-07-29T23:56:58.911Z,35.28
2022-07-29T23:59:29.598Z,34.22
